Portada
METAR-TAF:

METAR-TAF

Aeroports :

Màlaga, Espanya

latitud: 36-40N, longitud: 004-29W, altitud: 16 m

Observació

L'informe es va fer fa 17 minuts, a les 11:00 UTC
Vent 18 kt del Oest/Nord-Oest
Temperatura 20°C
Humitat 49%
Pressió 1022 hPa
Visibilitat 10 km o més
Escasses núvols a una alçada de 2500 ft

METAR: LEMG 261100Z 30018KT 9999 FEW025 20/09 Q1022 NOSIG

Hora: 12:17 (11:17 UTC)

Pronòstic

L'informe es va fer fa 6 hores i 17 minuts, a les 05:00 UTC
Pronòstic vàlid del 26 a les 06 UTC al 27 a les 06 UTC
Vent 12 kt del Oest/Nord-Oest
Visibilitat 10 km o més
sense núvols per sota de 1500 mi sense presència de cumulonimbus.
Probabilitat 40% :
Temporalment
l' 26 a les 08 UTC al 26 a les 18 UTC
Vent 18 kt del Nord-Oest amb ràfegues de 28 kt

TAF: LEMG 260500Z 2606/2706 30012KT CAVOK TX23/2614Z TN12/2706Z PROB40 TEMPO 2608/2618 31018G28KT

Observacions i pronòstics meteorològics de més de 4000 aeroports (METAR i TAF).

Les estacions disponibles són els punts grocs i vermells al mapa.

Posi el ratolí al punt desitjat per veure el nom de l'estació.

Feu clic per veure les observacions i els pronòstics meteorològics.

Per canviar el mapa: feu clic els botons verds amb una creu de color negre per apropar; al botó verd amb un guió per allunyar la imatge; o en les fletxes verdes per a mapes adjacents.


METAR-TAF: